Pagina principale
METAR-TAF:

METAR-TAF

Aeroporti :

Aeroporto di Trieste-Ronchi dei Legionari

Trieste / Ronchi dei Legionari, Italia

latitudine: 45-49N, longitudine: 013-29E, altezza: 12 m

Osservazione

Il bollettino è stato emesso 34 minuti fa, alle 02:20 UTC
Vento 3 kt da nord/nord-est
Temperature 8°C
Umidità 93%
Pressione 1018 hPa
Visibilità: 3200 m
foschia

METAR: LIPQ 240220Z AUTO 02003KT 3200 BR BKN017/// OVC026/// 08/07 Q1018

Ora: 03:54 (02:54 UTC)

Previsione

Il bollettino è stato emesso 3 ore e 54 minuti fa, alle 23:00 UTC
Previsione valida dal 24 alle 00 UTC al 24 alle 24 UTC
Vento 5 kt da direzioni variabili
Visibilità: 2500 m
Cielo coperto ad un'altezza di 2000 ft
foschia
Evoluzione graduale
dal 24 alle 07 UTC al 24 alle 09 UTC
Visibilità: 8000 m

TAF: LIPQ 232300Z 2400/2424 VRB05KT 2500 BR OVC020 BECMG 2407/2409 8000

Osservazioni e previsioni meteorologiche di più di 4000 aeroporti (messaggi METAR e TAF).

Le stazioni disponibili sono rappresentate dai dischi gialli e rossi sulla carta.

Puntare il mouse per vedere il nome della stazione.

Clicca sopra per visualizzare le osservazioni e previsioni meteorologiche.

Per cambiare la mappa : fare clic sui pulsanti verdi con una croce nera per ingrandire, il pulsante verde con un trattino per diminuire, o sulla freccia verde per le mappe adiacenti.


METAR-TAF: